Time;durP1;ratioP1;P1;durP2;ratioP2;P2;SDS_P1;SDS_P2;PMS_P1;PMS_P2;Temp;Humidity;BMP_temperature;BMP_pressure;BME280_temperature;BME280_humidity;BME280_pressure;Samples;Min_cycle;Max_cycle;Signal;HPM_P1;HPM_P2
2022/03/10 00:01:09;;;;;;;22.88;9.13;;;4.90;87.80;;;;;;5052218;28;20050;-74
2022/03/10 00:03:35;;;;;;;23.45;8.50;;;4.80;89.40;;;;;;5050893;28;20474;-74
2022/03/10 00:06:01;;;;;;;24.33;8.43;;;4.80;90.00;;;;;;5034924;28;20109;-75
2022/03/10 00:08:26;;;;;;;25.05;8.52;;;4.70;90.40;;;;;;5034041;28;20028;-74
2022/03/10 00:10:52;;;;;;;22.30;8.48;;;4.70;91.50;;;;;;5032979;28;20033;-75
2022/03/10 00:13:17;;;;;;;24.17;8.55;;;4.60;91.00;;;;;;5034095;28;20022;-74
2022/03/10 00:15:43;;;;;;;20.58;7.95;;;4.60;92.10;;;;;;5048990;28;20493;-74
2022/03/10 00:18:08;;;;;;;26.38;9.85;;;4.50;92.70;;;;;;5054484;28;20017;-75
2022/03/10 00:20:34;;;;;;;20.15;7.95;;;4.40;92.60;;;;;;5052726;28;20027;-74
2022/03/10 00:23:00;;;;;;;21.95;7.82;;;4.40;93.40;;;;;;5053583;28;20053;-74
2022/03/10 00:25:25;;;;;;;25.23;7.85;;;4.40;92.50;;;;;;5035184;28;20032;-74
2022/03/10 00:27:51;;;;;;;28.58;8.40;;;4.30;94.60;;;;;;5032726;28;20021;-75
2022/03/10 00:30:17;;;;;;;22.05;8.38;;;4.20;93.70;;;;;;5032490;28;20025;-74
2022/03/10 00:32:48;;;;;;;21.40;8.73;;;4.20;94.80;;;;;;5034295;28;20024;-74
2022/03/10 00:35:22;;;;;;;28.77;9.18;;;4.10;94.70;;;;;;5041328;28;20017;-74
2022/03/10 00:37:48;;;;;;;22.30;7.97;;;4.10;95.70;;;;;;5032306;28;20036;-75
2022/03/10 00:40:15;;;;;;;23.88;7.50;;;4.10;96.60;;;;;;5033875;28;20022;-75
2022/03/10 00:42:42;;;;;;;24.08;8.50;;;4.00;95.80;;;;;;5032566;28;20168;-74
2022/03/10 00:45:08;;;;;;;19.13;6.95;;;3.90;96.90;;;;;;5047613;28;20033;-74
2022/03/10 00:47:34;;;;;;;20.80;8.07;;;3.90;96.90;;;;;;5052233;28;20051;-74
2022/03/10 00:50:01;;;;;;;21.55;8.27;;;3.80;97.80;;;;;;5053597;28;20025;-74
2022/03/10 00:52:27;;;;;;;22.00;8.55;;;3.80;98.20;;;;;;5047571;28;20462;-75
2022/03/10 00:54:53;;;;;;;22.40;8.30;;;3.80;98.20;;;;;;5033506;28;20103;-74
2022/03/10 00:57:19;;;;;;;22.30;8.38;;;3.80;98.60;;;;;;5032253;28;20045;-75
2022/03/10 00:59:44;;;;;;;24.63;8.52;;;3.80;98.90;;;;;;5033854;28;20021;-74
2022/03/10 01:02:10;;;;;;;23.23;8.70;;;3.80;99.90;;;;;;5035066;28;20035;-75
2022/03/10 01:04:36;;;;;;;24.75;8.40;;;3.80;99.90;;;;;;5053732;28;20071;-75
2022/03/10 01:07:02;;;;;;;24.92;8.38;;;3.70;99.90;;;;;;5053445;28;20453;-75
2022/03/10 01:09:27;;;;;;;24.63;9.00;;;3.70;99.90;;;;;;5053284;28;20029;-75
2022/03/10 01:11:53;;;;;;;25.77;8.52;;;3.60;99.90;;;;;;5052780;28;20044;-75
2022/03/10 01:14:18;;;;;;;24.42;8.40;;;3.60;99.90;;;;;;5033418;28;20056;-75
2022/03/10 01:16:44;;;;;;;22.38;9.25;;;3.50;99.90;;;;;;5033099;28;20033;-75
2022/03/10 01:19:10;;;;;;;22.50;7.75;;;3.40;99.90;;;;;;5033490;28;20502;-75
2022/03/10 01:21:36;;;;;;;22.63;8.75;;;3.40;99.90;;;;;;5033611;28;20506;-75
2022/03/10 01:24:02;;;;;;;21.25;8.45;;;3.40;99.90;;;;;;5049601;28;20025;-75
2022/03/10 01:26:27;;;;;;;26.50;8.77;;;3.40;99.90;;;;;;5051761;28;20028;-75
2022/03/10 01:28:53;;;;;;;24.90;8.65;;;3.40;99.90;;;;;;5052081;28;20175;-75
2022/03/10 01:31:18;;;;;;;20.83;7.47;;;3.50;99.90;;;;;;5053034;28;20025;-75
2022/03/10 01:33:44;;;;;;;22.40;8.95;;;3.50;99.90;;;;;;5037811;28;20033;-75
2022/03/10 01:36:10;;;;;;;20.67;8.63;;;3.60;99.90;;;;;;5037538;28;20027;-74
2022/03/10 01:38:39;;;;;;;29.10;8.98;;;3.60;99.90;;;;;;5036457;28;20113;-75
2022/03/10 01:41:09;;;;;;;22.20;9.00;;;3.60;99.90;;;;;;5037234;28;20049;-75
2022/03/10 01:43:58;;;;;;;24.25;9.20;;;3.60;99.90;;;;;;5037581;28;20028;-75
2022/03/10 01:46:24;;;;;;;26.23;8.70;;;3.70;99.90;;;;;;5036874;28;20052;-75
2022/03/10 01:48:49;;;;;;;25.60;8.27;;;3.70;99.90;;;;;;5037135;28;20033;-74
2022/03/10 01:51:16;;;;;;;23.83;9.15;;;3.70;99.90;;;;;;5068860;28;20394;-74
2022/03/10 01:53:42;;;;;;;24.60;8.85;;;3.60;99.90;;;;;;5051128;28;20028;-74
2022/03/10 01:56:09;;;;;;;30.13;10.48;;;3.70;99.90;;;;;;5057195;28;20028;-74
2022/03/10 01:58:36;;;;;;;24.92;9.32;;;3.70;99.90;;;;;;5056831;28;20474;-74
2022/03/10 02:01:02;;;;;;;21.67;9.00;;;3.70;99.90;;;;;;5055519;28;20024;-74
2022/03/10 02:03:28;;;;;;;24.63;8.40;;;3.80;99.90;;;;;;5046257;28;20049;-74
2022/03/10 02:05:54;;;;;;;29.27;9.40;;;3.70;99.90;;;;;;5056504;28;20044;-74
2022/03/10 02:11:06;;;;;;;24.52;9.05;;;3.70;99.90;;;;;;5056779;28;20039;-74
2022/03/10 02:13:31;;;;;;;25.45;8.90;;;3.70;99.90;;;;;;5054401;28;20027;-74
2022/03/10 02:18:41;;;;;;;27.88;9.77;;;3.60;99.90;;;;;;5036781;28;20024;-74
2022/03/10 02:21:06;;;;;;;23.92;8.98;;;3.60;99.90;;;;;;5036671;28;20112;-74
2022/03/10 02:23:32;;;;;;;20.77;7.93;;;3.60;99.90;;;;;;5036501;28;20100;-74
2022/03/10 02:26:01;;;;;;;28.00;9.48;;;3.50;99.90;;;;;;5037019;28;20025;-74
2022/03/10 02:28:27;;;;;;;22.92;8.50;;;3.60;99.90;;;;;;5036890;28;20025;-74
2022/03/10 02:30:53;;;;;;;27.40;10.20;;;3.50;99.90;;;;;;5068504;28;20036;-74
2022/03/10 02:33:19;;;;;;;29.60;9.95;;;3.50;99.90;;;;;;5035423;28;20113;-74
2022/03/10 02:35:45;;;;;;;27.10;10.32;;;3.50;99.90;;;;;;5037491;28;20024;-74
2022/03/10 02:38:17;;;;;;;25.58;8.68;;;3.50;99.90;;;;;;5035001;28;20041;-74
2022/03/10 02:40:47;;;;;;;23.83;8.98;;;3.50;99.90;;;;;;5034716;28;20029;-74
2022/03/10 02:43:12;;;;;;;26.90;9.68;;;3.50;99.90;;;;;;5036345;28;20026;-74
2022/03/10 02:45:38;;;;;;;25.02;9.15;;;3.50;99.90;;;;;;5052160;28;20051;-74
2022/03/10 02:48:04;;;;;;;21.75;9.02;;;3.50;99.90;;;;;;5054460;28;20045;-74
2022/03/10 02:50:29;;;;;;;23.15;8.50;;;3.50;99.90;;;;;;5055650;28;20036;-74
2022/03/10 02:52:58;;;;;;;24.73;9.85;;;3.50;99.90;;;;;;5054396;28;20021;-74
2022/03/10 02:55:23;;;;;;;25.10;8.75;;;3.40;99.90;;;;;;5055821;28;20020;-74
2022/03/10 02:57:49;;;;;;;21.88;8.60;;;3.40;99.90;;;;;;5055532;28;20017;-74
2022/03/10 03:00:16;;;;;;;24.45;9.48;;;3.50;99.90;;;;;;5054306;28;20025;-74
2022/03/10 03:02:46;;;;;;;23.95;9.25;;;3.50;99.90;;;;;;5054107;28;20033;-74
2022/03/10 03:05:12;;;;;;;21.98;8.35;;;3.50;99.90;;;;;;5046078;28;20532;-74
2022/03/10 03:07:39;;;;;;;22.42;8.85;;;3.50;99.90;;;;;;5055428;28;20526;-74
2022/03/10 03:10:06;;;;;;;25.13;8.82;;;3.50;99.90;;;;;;5055460;28;20032;-74
2022/03/10 03:12:32;;;;;;;28.05;8.68;;;3.60;99.90;;;;;;5054079;28;20025;-74
2022/03/10 03:14:59;;;;;;;27.58;8.82;;;3.60;99.90;;;;;;5035861;28;20026;-75
2022/03/10 03:17:24;;;;;;;24.02;8.82;;;3.50;99.90;;;;;;5033865;28;20025;-74
2022/03/10 03:19:51;;;;;;;26.42;8.32;;;3.50;99.90;;;;;;5035305;28;20040;-74
2022/03/10 03:22:16;;;;;;;21.10;8.55;;;3.50;99.90;;;;;;5034183;28;20033;-75
2022/03/10 03:24:42;;;;;;;24.88;8.95;;;3.50;99.90;;;;;;5050259;28;20028;-75
2022/03/10 03:27:08;;;;;;;25.30;10.07;;;3.50;99.90;;;;;;5055206;28;20120;-74
2022/03/10 03:29:34;;;;;;;19.63;8.50;;;3.50;99.90;;;;;;5054761;28;20028;-74
2022/03/10 03:31:59;;;;;;;22.55;9.00;;;3.50;99.90;;;;;;5055000;28;20067;-74
2022/03/10 03:34:25;;;;;;;21.98;8.75;;;3.50;99.90;;;;;;5040468;28;20021;-74
2022/03/10 03:36:51;;;;;;;21.27;8.15;;;3.40;99.90;;;;;;5034996;28;20022;-74
2022/03/10 03:39:16;;;;;;;22.30;8.32;;;3.40;99.90;;;;;;5035099;28;20018;-74
2022/03/10 03:41:42;;;;;;;22.60;8.05;;;3.40;99.90;;;;;;5035726;28;20030;-74
2022/03/10 03:44:09;;;;;;;26.80;9.25;;;3.30;99.90;;;;;;5044751;28;20386;-74
2022/03/10 03:46:35;;;;;;;20.35;8.50;;;3.30;99.90;;;;;;5054601;28;20536;-74
2022/03/10 03:49:01;;;;;;;25.63;9.32;;;3.30;99.90;;;;;;5053313;28;20032;-74
2022/03/10 03:51:26;;;;;;;27.38;8.77;;;3.30;99.90;;;;;;5053433;28;20112;-74
2022/03/10 03:53:52;;;;;;;24.80;8.77;;;3.30;99.90;;;;;;5050075;28;20017;-74
2022/03/10 03:56:18;;;;;;;25.05;7.93;;;3.20;99.90;;;;;;5053921;28;20542;-74
2022/03/10 03:58:44;;;;;;;25.67;9.57;;;3.30;99.90;;;;;;5054281;28;20509;-74
2022/03/10 04:01:10;;;;;;;27.58;9.30;;;3.20;99.90;;;;;;5054260;28;20033;-74
2022/03/10 04:03:35;;;;;;;22.92;9.02;;;3.20;99.90;;;;;;5050864;28;20033;-74
2022/03/10 04:06:01;;;;;;;23.55;8.13;;;3.20;99.90;;;;;;5052652;28;20490;-74
2022/03/10 04:08:26;;;;;;;23.38;7.72;;;3.20;99.90;;;;;;5054313;28;20483;-74
2022/03/10 04:10:52;;;;;;;23.98;8.85;;;3.20;99.90;;;;;;5054258;28;20061;-74
2022/03/10 04:13:19;;;;;;;22.60;8.55;;;3.20;99.90;;;;;;5053893;28;20104;-74
2022/03/10 04:15:44;;;;;;;22.15;7.68;;;3.20;99.90;;;;;;5034643;28;20025;-74
2022/03/10 04:18:10;;;;;;;23.48;8.25;;;3.20;99.90;;;;;;5034652;28;20031;-74
2022/03/10 04:20:36;;;;;;;28.38;9.75;;;3.20;99.90;;;;;;5034396;28;20029;-74
2022/03/10 04:23:01;;;;;;;22.77;8.32;;;3.20;99.90;;;;;;5034455;28;20033;-74
2022/03/10 04:25:27;;;;;;;20.70;7.90;;;3.20;99.90;;;;;;5050020;28;20025;-74
2022/03/10 04:27:56;;;;;;;24.50;8.43;;;3.20;99.90;;;;;;5054018;28;20037;-74
2022/03/10 04:30:22;;;;;;;26.60;9.25;;;3.10;99.90;;;;;;5054396;28;20096;-74
2022/03/10 04:32:49;;;;;;;24.08;8.50;;;3.10;99.90;;;;;;5053956;28;20100;-74
2022/03/10 04:35:16;;;;;;;24.35;8.18;;;3.10;99.90;;;;;;5049600;28;20051;-74
2022/03/10 04:37:43;;;;;;;20.83;8.23;;;3.10;99.90;;;;;;5053927;28;20036;-74
2022/03/10 04:40:10;;;;;;;23.30;8.35;;;3.10;99.90;;;;;;5054081;28;20024;-74
2022/03/10 04:42:38;;;;;;;26.67;8.43;;;3.00;99.90;;;;;;5054121;28;20052;-74
2022/03/10 04:45:05;;;;;;;27.75;8.20;;;3.00;99.90;;;;;;5040565;28;20116;-74
2022/03/10 04:47:30;;;;;;;25.27;9.35;;;3.00;99.90;;;;;;5033463;28;20442;-74
2022/03/10 04:49:57;;;;;;;23.50;8.02;;;3.00;99.90;;;;;;5032422;28;20116;-74
2022/03/10 04:52:25;;;;;;;21.38;8.45;;;3.00;99.90;;;;;;5032674;28;20100;-75
2022/03/10 04:54:51;;;;;;;26.02;9.20;;;3.00;99.90;;;;;;5033512;28;20025;-74
2022/03/10 04:57:16;;;;;;;22.88;8.65;;;3.00;99.90;;;;;;5032341;28;20360;-74
2022/03/10 04:59:42;;;;;;;26.48;10.13;;;2.90;99.90;;;;;;5033546;28;20483;-74
2022/03/10 05:02:08;;;;;;;32.00;8.20;;;2.90;99.90;;;;;;5034024;28;20034;-74
2022/03/10 05:04:33;;;;;;;25.55;8.68;;;2.90;99.90;;;;;;5053098;28;20032;-74
2022/03/10 05:06:58;;;;;;;29.00;8.55;;;2.90;99.90;;;;;;5053160;28;20029;-74
2022/03/10 05:09:24;;;;;;;24.63;8.10;;;3.00;99.90;;;;;;5053441;28;20029;-74
2022/03/10 05:11:50;;;;;;;22.70;7.68;;;3.00;99.90;;;;;;5053146;28;20486;-74
2022/03/10 05:14:15;;;;;;;26.25;8.30;;;3.00;99.90;;;;;;5033336;28;20060;-74
2022/03/10 05:16:41;;;;;;;26.83;9.52;;;3.00;99.90;;;;;;5033156;28;20033;-74
2022/03/10 05:19:06;;;;;;;25.75;8.23;;;3.00;99.90;;;;;;5032129;28;20029;-74
2022/03/10 05:21:32;;;;;;;21.83;7.68;;;2.90;99.90;;;;;;5033222;28;20021;-74
2022/03/10 05:23:57;;;;;;;21.55;8.10;;;2.90;99.90;;;;;;5049300;28;20368;-74
2022/03/10 05:26:23;;;;;;;24.05;8.52;;;2.90;99.90;;;;;;5053381;28;20091;-74
2022/03/10 05:28:49;;;;;;;22.13;7.90;;;2.90;99.90;;;;;;5068443;28;20031;-74
2022/03/10 05:31:14;;;;;;;24.70;9.38;;;2.90;99.90;;;;;;5053059;28;20029;-74
2022/03/10 05:33:40;;;;;;;21.00;7.78;;;2.90;99.90;;;;;;5042718;28;20083;-74
2022/03/10 05:36:05;;;;;;;25.45;9.50;;;2.80;99.90;;;;;;5031895;28;20014;-74
2022/03/10 05:38:31;;;;;;;24.25;8.07;;;2.80;99.90;;;;;;5031712;28;20029;-74
2022/03/10 05:40:56;;;;;;;22.98;8.52;;;2.80;99.90;;;;;;5033006;28;20029;-74
2022/03/10 05:43:22;;;;;;;26.48;9.00;;;2.70;99.90;;;;;;5033522;28;20042;-75
2022/03/10 05:45:47;;;;;;;23.17;9.15;;;2.70;99.90;;;;;;5033204;28;20449;-74
2022/03/10 05:48:13;;;;;;;25.95;8.27;;;2.70;99.90;;;;;;5033397;28;20037;-74
2022/03/10 05:50:39;;;;;;;25.05;8.48;;;2.70;99.90;;;;;;5033180;28;20029;-74
2022/03/10 05:53:06;;;;;;;21.45;8.15;;;2.70;99.90;;;;;;5041205;28;20017;-74
2022/03/10 05:55:31;;;;;;;26.52;8.52;;;2.80;99.90;;;;;;5052767;28;20021;-74
2022/03/10 05:57:57;;;;;;;24.15;7.93;;;2.80;99.90;;;;;;5052905;28;20017;-74
2022/03/10 06:00:23;;;;;;;23.23;9.45;;;2.70;99.90;;;;;;5051464;28;20036;-74
2022/03/10 06:02:49;;;;;;;21.92;7.93;;;2.70;99.90;;;;;;5051026;28;20025;-74
2022/03/10 06:05:15;;;;;;;21.88;8.43;;;2.70;99.90;;;;;;5052158;28;20104;-74
2022/03/10 06:07:41;;;;;;;22.05;7.90;;;2.70;99.90;;;;;;5053432;28;20060;-74
2022/03/10 06:10:07;;;;;;;23.13;8.55;;;2.70;99.90;;;;;;5051813;28;20390;-75
2022/03/10 06:12:32;;;;;;;25.40;9.02;;;2.60;99.90;;;;;;5051712;28;20025;-75
2022/03/10 06:15:01;;;;;;;27.13;9.15;;;2.60;99.90;;;;;;5039576;28;20065;-74
2022/03/10 06:17:27;;;;;;;20.90;8.32;;;2.60;99.90;;;;;;5033052;28;20021;-74
2022/03/10 06:19:53;;;;;;;22.88;8.60;;;2.50;99.90;;;;;;5033278;28;20100;-75
2022/03/10 06:22:20;;;;;;;22.73;8.45;;;2.60;99.90;;;;;;5035627;28;20057;-74
2022/03/10 06:24:47;;;;;;;22.52;7.93;;;2.60;99.90;;;;;;5048237;28;20032;-74
2022/03/10 06:27:13;;;;;;;22.92;7.93;;;2.60;99.90;;;;;;5056651;28;20028;-74
2022/03/10 06:29:40;;;;;;;26.55;7.95;;;2.50;99.90;;;;;;5056454;28;20025;-74
2022/03/10 06:32:06;;;;;;;23.15;8.32;;;2.50;99.90;;;;;;5056486;28;20029;-74
2022/03/10 06:34:32;;;;;;;23.55;7.57;;;2.50;99.90;;;;;;5045475;28;20025;-75
2022/03/10 06:36:57;;;;;;;28.13;8.75;;;2.50;99.90;;;;;;5036145;28;20033;-74
2022/03/10 06:39:23;;;;;;;21.67;7.80;;;2.50;99.90;;;;;;5068640;28;20028;-74
2022/03/10 06:41:49;;;;;;;24.75;7.65;;;2.40;99.90;;;;;;5036418;28;20029;-74
2022/03/10 06:44:14;;;;;;;24.67;8.77;;;2.40;99.90;;;;;;5042053;28;20028;-75
2022/03/10 06:46:40;;;;;;;21.92;7.97;;;2.50;99.90;;;;;;5054816;28;20111;-75
2022/03/10 06:49:06;;;;;;;20.38;8.43;;;2.50;99.90;;;;;;5056245;28;20031;-74
2022/03/10 06:51:31;;;;;;;27.33;8.88;;;2.50;99.90;;;;;;5054767;28;20064;-74
2022/03/10 06:53:58;;;;;;;22.33;8.10;;;2.60;99.90;;;;;;5050689;28;20026;-74
2022/03/10 06:56:25;;;;;;;27.00;7.75;;;2.70;99.90;;;;;;5034730;28;20533;-74
2022/03/10 06:58:51;;;;;;;22.88;8.30;;;2.80;99.90;;;;;;5034612;28;20030;-74
2022/03/10 07:01:17;;;;;;;23.17;7.85;;;2.90;99.90;;;;;;5068111;28;20021;-74
2022/03/10 07:03:42;;;;;;;27.98;9.23;;;3.00;99.90;;;;;;5036485;28;20014;-74
2022/03/10 07:06:08;;;;;;;23.50;8.25;;;3.10;99.90;;;;;;5035421;28;20030;-74
2022/03/10 07:08:34;;;;;;;23.88;8.57;;;3.30;99.90;;;;;;5035584;28;20502;-76
2022/03/10 07:11:02;;;;;;;21.17;7.10;;;3.40;99.90;;;;;;5034198;28;20036;-76
2022/03/10 07:13:28;;;;;;;24.73;7.38;;;3.60;99.90;;;;;;5034165;28;20072;-74
2022/03/10 07:15:54;;;;;;;25.38;9.60;;;3.70;99.90;;;;;;5067750;28;20048;-74
2022/03/10 07:18:19;;;;;;;24.92;8.77;;;3.80;99.90;;;;;;5034171;28;20022;-74
2022/03/10 07:20:45;;;;;;;21.58;7.75;;;3.90;99.90;;;;;;5034163;28;20476;-74
2022/03/10 07:23:11;;;;;;;26.33;8.23;;;4.00;99.90;;;;;;5035971;28;20029;-75
2022/03/10 07:25:36;;;;;;;25.98;9.55;;;4.20;99.90;;;;;;5035853;28;20030;-75
2022/03/10 07:28:02;;;;;;;25.98;7.82;;;4.20;99.90;;;;;;5034047;28;20113;-75
2022/03/10 07:30:28;;;;;;;22.30;8.27;;;4.40;99.90;;;;;;5035450;28;20034;-74
2022/03/10 07:32:53;;;;;;;22.15;8.32;;;4.50;99.90;;;;;;5034097;28;20027;-75
2022/03/10 07:35:19;;;;;;;25.25;8.40;;;4.60;99.90;;;;;;5035803;28;20068;-75
2022/03/10 07:37:46;;;;;;;25.35;9.27;;;4.70;99.90;;;;;;5034778;28;20032;-75
2022/03/10 07:40:12;;;;;;;25.02;8.18;;;4.80;99.90;;;;;;5035263;28;20033;-74
2022/03/10 07:42:38;;;;;;;24.35;8.55;;;5.00;99.90;;;;;;5035020;28;20040;-74
2022/03/10 07:45:04;;;;;;;25.75;8.70;;;5.10;99.20;;;;;;5035238;28;20032;-73
2022/03/10 07:47:29;;;;;;;21.15;9.05;;;5.30;98.40;;;;;;5033542;28;20033;-75
2022/03/10 07:49:57;;;;;;;27.50;10.32;;;5.40;97.60;;;;;;5035188;28;20022;-75
2022/03/10 07:52:22;;;;;;;24.15;8.55;;;5.60;96.60;;;;;;5034798;28;20147;-75
2022/03/10 07:54:48;;;;;;;23.42;8.77;;;5.70;95.50;;;;;;5034847;28;20540;-75
2022/03/10 07:57:14;;;;;;;22.00;8.30;;;5.80;95.50;;;;;;5034780;28;20117;-74
2022/03/10 07:59:39;;;;;;;25.33;9.63;;;6.00;93.60;;;;;;5066606;28;20035;-74
2022/03/10 08:02:05;;;;;;;22.05;8.05;;;6.10;93.20;;;;;;5034497;28;20028;-74
2022/03/10 08:04:31;;;;;;;24.35;9.30;;;6.20;91.60;;;;;;5033140;28;20120;-74
2022/03/10 08:06:56;;;;;;;22.40;8.65;;;6.40;91.10;;;;;;5033086;28;20372;-74
2022/03/10 08:09:22;;;;;;;21.90;8.10;;;6.50;91.10;;;;;;5034577;28;20084;-74
2022/03/10 08:11:47;;;;;;;20.92;8.45;;;6.60;89.60;;;;;;5034433;28;20029;-74
2022/03/10 08:14:13;;;;;;;25.90;8.60;;;6.70;87.50;;;;;;5034623;28;20387;-74
2022/03/10 08:16:40;;;;;;;22.30;7.72;;;6.80;85.60;;;;;;5034078;28;20368;-74
2022/03/10 08:19:09;;;;;;;24.00;9.43;;;7.00;84.50;;;;;;5034469;28;20026;-74
2022/03/10 08:21:34;;;;;;;22.08;6.78;;;7.00;84.80;;;;;;5034438;28;20494;-75
2022/03/10 08:24:00;;;;;;;31.42;8.73;;;7.10;86.80;;;;;;5032958;28;20119;-74
2022/03/10 08:26:26;;;;;;;25.52;8.35;;;7.20;83.40;;;;;;5033922;28;20017;-74
2022/03/10 08:28:53;;;;;;;24.77;8.35;;;7.30;83.50;;;;;;5034197;28;20437;-74
2022/03/10 08:31:19;;;;;;;24.30;9.35;;;7.40;86.20;;;;;;5033832;28;20025;-74
2022/03/10 08:33:45;;;;;;;31.30;9.63;;;7.50;79.60;;;;;;5032729;28;20018;-74
2022/03/10 08:36:10;;;;;;;21.65;7.47;;;7.60;83.80;;;;;;5034169;28;20163;-74
2022/03/10 08:38:36;;;;;;;24.33;9.35;;;7.70;83.20;;;;;;5032868;28;20033;-74
2022/03/10 08:41:02;;;;;;;22.67;8.68;;;7.80;81.30;;;;;;5033856;28;20028;-74
2022/03/10 08:43:29;;;;;;;25.70;9.65;;;7.90;80.80;;;;;;5065526;28;20045;-74
2022/03/10 08:46:01;;;;;;;24.92;8.98;;;8.00;79.50;;;;;;5065819;28;20021;-74
2022/03/10 08:48:27;;;;;;;34.85;9.23;;;8.10;82.70;;;;;;5034952;28;20139;-74
2022/03/10 08:50:53;;;;;;;24.45;8.68;;;8.20;79.10;;;;;;5032563;28;20024;-73
2022/03/10 08:53:19;;;;;;;26.02;9.50;;;8.20;78.10;;;;;;5034174;28;20022;-74
2022/03/10 08:55:44;;;;;;;24.70;9.25;;;8.40;77.40;;;;;;5034341;28;20021;-74
2022/03/10 08:58:10;;;;;;;24.17;8.43;;;8.40;76.70;;;;;;5032733;28;20422;-74
2022/03/10 09:00:35;;;;;;;22.30;8.75;;;8.50;76.60;;;;;;5032538;28;20034;-74
2022/03/10 09:03:02;;;;;;;24.80;9.27;;;8.60;77.60;;;;;;5034350;28;20021;-74
2022/03/10 09:05:27;;;;;;;25.23;8.82;;;8.70;78.50;;;;;;5032668;28;20053;-74
2022/03/10 09:07:53;;;;;;;22.40;8.63;;;8.80;74.10;;;;;;5065816;28;20017;-75
2022/03/10 09:10:18;;;;;;;22.52;9.10;;;8.90;75.40;;;;;;5033651;28;20029;-75
2022/03/10 09:12:44;;;;;;;23.48;8.65;;;9.00;74.30;;;;;;5034454;28;20020;-75
2022/03/10 09:15:10;;;;;;;26.23;8.77;;;9.00;74.80;;;;;;5033735;28;20028;-75
2022/03/10 09:17:36;;;;;;;24.60;10.70;;;9.10;75.90;;;;;;5033866;28;20080;-75
2022/03/10 09:20:05;;;;;;;23.75;9.57;;;9.10;74.50;;;;;;5032744;28;20021;-75
2022/03/10 09:22:30;;;;;;;27.25;9.05;;;9.20;73.20;;;;;;5034068;28;20462;-75
2022/03/10 09:24:56;;;;;;;22.70;9.35;;;9.30;73.90;;;;;;5034121;28;20052;-75
2022/03/10 09:27:23;;;;;;;19.42;8.45;;;9.40;73.90;;;;;;5033974;28;20053;-74
2022/03/10 09:29:48;;;;;;;25.95;9.25;;;9.50;75.10;;;;;;5034141;28;20034;-75
2022/03/10 09:32:17;;;;;;;22.02;8.18;;;9.70;72.80;;;;;;5033732;28;20068;-74
2022/03/10 09:34:43;;;;;;;26.05;8.38;;;9.80;73.00;;;;;;5034198;28;20013;-76
2022/03/10 09:37:09;;;;;;;24.17;9.85;;;9.90;73.20;;;;;;5066049;28;20080;-74
2022/03/10 09:39:34;;;;;;;24.30;9.23;;;10.00;73.50;;;;;;5034036;28;20029;-74
2022/03/10 09:42:03;;;;;;;24.38;8.95;;;10.10;71.40;;;;;;5034163;28;20360;-74
2022/03/10 09:44:30;;;;;;;;;;;10.20;72.00;;;;;;5034265;28;20026;-75
2022/03/10 09:47:02;;;;;;;26.08;9.25;;;10.30;72.90;;;;;;5033807;28;19955;-74
2022/03/10 09:49:28;;;;;;;23.08;9.65;;;10.30;70.00;;;;;;5033970;28;20026;-74
2022/03/10 09:51:56;;;;;;;23.15;8.65;;;10.40;70.40;;;;;;5033294;28;20070;-74
2022/03/10 09:54:22;;;;;;;20.25;8.73;;;10.40;70.50;;;;;;5033495;28;20092;-74
2022/03/10 09:56:48;;;;;;;24.25;9.85;;;10.50;70.10;;;;;;5037076;28;20099;-74
2022/03/10 09:59:13;;;;;;;22.77;9.45;;;10.50;70.30;;;;;;5037401;28;20097;-74
2022/03/10 10:01:39;;;;;;;22.02;9.00;;;10.60;70.70;;;;;;5037412;28;20037;-74
2022/03/10 10:04:06;;;;;;;23.27;8.98;;;10.70;70.40;;;;;;5037170;28;20120;-74
2022/03/10 10:06:51;;;;;;;26.13;8.75;;;10.80;70.60;;;;;;5037404;28;20049;-74
2022/03/10 10:09:20;;;;;;;23.20;9.13;;;10.90;70.30;;;;;;5036931;28;20502;-74
2022/03/10 10:11:45;;;;;;;26.85;9.45;;;11.00;70.30;;;;;;5037191;28;20533;-74
2022/03/10 10:14:11;;;;;;;20.30;8.45;;;11.10;70.30;;;;;;5036753;28;20022;-74
2022/03/10 10:16:47;;;;;;;23.00;8.70;;;11.20;68.80;;;;;;5037034;28;20106;-74
2022/03/10 10:19:17;;;;;;;23.08;10.02;;;11.40;68.70;;;;;;5036773;28;20025;-74
2022/03/10 10:21:42;;;;;;;25.35;9.93;;;11.50;68.00;;;;;;5037032;28;20100;-74
2022/03/10 10:24:15;;;;;;;22.23;8.70;;;11.60;68.00;;;;;;5036349;28;20057;-74
2022/03/10 10:26:41;;;;;;;20.92;8.00;;;11.70;67.00;;;;;;5036578;28;20112;-74
2022/03/10 10:29:06;;;;;;;23.52;8.43;;;11.80;67.20;;;;;;5036056;28;20068;-74
2022/03/10 10:31:36;;;;;;;19.10;7.57;;;11.90;66.50;;;;;;5034685;28;20069;-75
2022/03/10 10:34:08;;;;;;;22.60;8.32;;;12.00;66.40;;;;;;5035094;28;20033;-74
2022/03/10 10:36:37;;;;;;;21.92;8.95;;;12.10;65.40;;;;;;5036017;28;20036;-74
2022/03/10 10:39:10;;;;;;;21.50;8.80;;;12.20;64.40;;;;;;5034807;28;20055;-74
2022/03/10 10:41:37;;;;;;;21.90;8.65;;;12.30;64.40;;;;;;5034591;28;20017;-75
2022/03/10 10:44:09;;;;;;;25.75;8.25;;;12.30;65.00;;;;;;5035817;28;20033;-75
2022/03/10 10:46:39;;;;;;;18.33;8.63;;;12.30;63.30;;;;;;5035735;28;20080;-74
2022/03/10 10:49:15;;;;;;;25.17;9.57;;;12.50;64.50;;;;;;5035747;28;20021;-74
2022/03/10 10:51:52;;;;;;;19.92;8.07;;;12.60;63.60;;;;;;5036110;28;20033;-74
2022/03/10 10:54:21;;;;;;;20.33;7.80;;;12.70;63.40;;;;;;5034412;28;20103;-74
2022/03/10 10:56:55;;;;;;;21.85;8.43;;;12.90;62.40;;;;;;5035630;28;20483;-73
2022/03/10 10:59:41;;;;;;;25.52;8.40;;;13.00;63.00;;;;;;5035481;28;20104;-74
2022/03/10 11:02:12;;;;;;;20.92;9.13;;;13.10;62.10;;;;;;5036031;28;20017;-74
2022/03/10 11:04:46;;;;;;;22.10;7.60;;;13.20;61.70;;;;;;5035905;28;20108;-74
2022/03/10 11:07:13;;;;;;;18.55;7.78;;;13.20;61.00;;;;;;5035108;28;20032;-74
2022/03/10 11:09:41;;;;;;;21.80;9.45;;;13.40;60.50;;;;;;5035443;28;20036;-74
2022/03/10 11:12:13;;;;;;;20.60;8.17;;;13.50;59.30;;;;;;5035218;28;20013;-74
2022/03/10 11:14:39;;;;;;;20.85;7.75;;;13.50;59.90;;;;;;5033930;28;20021;-74
2022/03/10 11:17:05;;;;;;;22.98;9.30;;;13.60;59.10;;;;;;5035096;28;20083;-74
2022/03/10 11:19:36;;;;;;;17.92;8.13;;;13.60;59.70;;;;;;5033814;28;20067;-74
2022/03/10 11:22:20;;;;;;;21.00;8.88;;;13.60;58.40;;;;;;5035597;28;20136;-74
2022/03/10 11:24:49;;;;;;;21.70;9.02;;;13.70;59.00;;;;;;5035560;28;20455;-74
2022/03/10 11:27:39;;;;;;;16.42;7.50;;;13.90;59.70;;;;;;5033596;28;20025;-74
2022/03/10 11:30:06;;;;;;;21.05;9.32;;;14.10;59.50;;;;;;5034673;28;20029;-74
2022/03/10 11:32:32;;;;;;;26.10;8.23;;;14.40;59.10;;;;;;5034225;28;20017;-74
2022/03/10 11:35:00;;;;;;;22.85;7.82;;;14.70;58.00;;;;;;5034754;28;20638;-73
2022/03/10 11:37:35;;;;;;;21.30;9.02;;;14.80;57.60;;;;;;5033201;28;20036;-74
2022/03/10 11:40:01;;;;;;;19.67;7.82;;;15.00;56.50;;;;;;5034700;28;20460;-74
2022/03/10 11:42:29;;;;;;;22.77;7.72;;;15.10;54.60;;;;;;5034596;28;20025;-74
2022/03/10 11:45:20;;;;;;;20.05;7.40;;;15.20;55.80;;;;;;5034933;28;20507;-74
2022/03/10 11:47:47;;;;;;;21.35;8.10;;;15.40;54.60;;;;;;5034501;28;20419;-74
2022/03/10 11:50:22;;;;;;;19.45;7.13;;;15.60;54.30;;;;;;5034418;28;20431;-74
2022/03/10 11:52:53;;;;;;;16.60;7.25;;;16.00;53.10;;;;;;5034322;28;20021;-74
2022/03/10 11:55:24;;;;;;;16.92;6.53;;;15.90;53.00;;;;;;5033130;28;20026;-74
2022/03/10 11:58:05;;;;;;;17.75;7.90;;;16.10;52.70;;;;;;5034485;28;20017;-74
2022/03/10 12:00:51;;;;;;;17.42;6.65;;;16.40;52.60;;;;;;5034288;28;20025;-74
2022/03/10 12:03:38;;;;;;;18.90;7.97;;;16.50;49.80;;;;;;5034157;28;20030;-74
2022/03/10 12:06:14;;;;;;;16.67;7.13;;;16.50;49.20;;;;;;5066028;28;20395;-74
2022/03/10 12:08:40;;;;;;;21.02;7.75;;;16.70;49.70;;;;;;5034225;28;20029;-74
2022/03/10 12:11:12;;;;;;;17.70;7.53;;;16.80;49.10;;;;;;5033104;28;20035;-73
2022/03/10 12:13:40;;;;;;;18.88;6.78;;;16.80;47.00;;;;;;5034290;28;20064;-74
2022/03/10 12:16:28;;;;;;;19.58;7.10;;;16.80;47.20;;;;;;5034309;28;20025;-74
2022/03/10 12:18:54;;;;;;;20.63;6.88;;;16.90;47.10;;;;;;5033025;28;20475;-76
2022/03/10 12:21:30;;;;;;;24.00;7.88;;;17.00;46.90;;;;;;5032567;28;20033;-76
2022/03/10 12:24:04;;;;;;;20.52;6.65;;;17.10;47.20;;;;;;5032503;28;20029;-76
2022/03/10 12:26:31;;;;;;;20.25;7.50;;;17.30;45.90;;;;;;5032238;28;20026;-76
2022/03/10 12:28:59;;;;;;;15.65;6.63;;;17.30;45.80;;;;;;5033820;28;20109;-76
2022/03/10 12:31:27;;;;;;;16.30;6.43;;;17.30;45.30;;;;;;5032087;28;20387;-76
2022/03/10 12:33:59;;;;;;;20.27;7.40;;;17.40;44.80;;;;;;5033440;28;20013;-76
2022/03/10 12:36:26;;;;;;;16.23;6.50;;;17.40;44.70;;;;;;5033403;28;20025;-76
2022/03/10 12:38:51;;;;;;;18.80;7.00;;;17.50;44.80;;;;;;5032176;28;20069;-76
2022/03/10 12:41:18;;;;;;;19.27;7.25;;;17.50;44.70;;;;;;5034165;28;20025;-76
2022/03/10 12:43:44;;;;;;;19.77;8.18;;;17.70;45.20;;;;;;5033807;28;20040;-76
2022/03/10 12:46:10;;;;;;;20.55;7.30;;;17.80;44.90;;;;;;5033465;28;20025;-76
2022/03/10 12:49:06;;;;;;;21.38;7.97;;;17.90;45.00;;;;;;5033319;28;20048;-76
2022/03/10 12:51:35;;;;;;;21.83;7.82;;;18.00;44.70;;;;;;5032131;28;20025;-76